createdAt,value
2018-05-23T00:00:40.341Z,15.00
2018-05-23T00:03:07.867Z,15.90
2018-05-23T00:05:35.382Z,16.80
2018-05-23T00:08:02.902Z,15.67
2018-05-23T00:10:31.185Z,17.00
2018-05-23T00:12:59.465Z,18.30
2018-05-23T00:15:27.742Z,16.50
2018-05-23T00:17:56.025Z,17.60
2018-05-23T00:20:23.533Z,18.50
2018-05-23T00:22:51.050Z,18.63
2018-05-23T00:25:18.565Z,18.37
2018-05-23T00:27:46.853Z,18.40
2018-05-23T00:30:15.133Z,17.70
2018-05-23T00:32:43.411Z,17.73
2018-05-23T00:35:11.686Z,17.63
2018-05-23T00:37:39.968Z,19.00
2018-05-23T00:40:08.245Z,17.50
2018-05-23T00:42:36.529Z,18.27
2018-05-23T00:45:04.813Z,18.87
2018-05-23T00:47:32.333Z,18.27
2018-05-23T00:50:01.359Z,17.93
2018-05-23T00:52:29.638Z,18.30
2018-05-23T00:55:09.790Z,17.23
2018-05-23T00:57:38.069Z,17.90
2018-05-23T01:00:05.586Z,17.93
2018-05-23T01:02:33.103Z,19.40
2018-05-23T01:05:00.615Z,18.67
2018-05-23T01:07:29.641Z,20.53
2018-05-23T01:09:57.153Z,19.73
2018-05-23T01:12:24.677Z,19.10
2018-05-23T01:14:52.197Z,19.80
2018-05-23T01:17:20.486Z,19.73
2018-05-23T01:19:48.762Z,18.97
2018-05-23T01:22:17.053Z,19.67
2018-05-23T01:24:44.572Z,19.80
2018-05-23T01:27:12.850Z,21.23
2018-05-23T01:29:40.377Z,19.13
2018-05-23T01:32:07.892Z,19.53
2018-05-23T01:34:36.173Z,20.10
2018-05-23T01:37:03.695Z,20.53
2018-05-23T01:39:31.233Z,20.40
2018-05-23T01:41:58.750Z,21.10
2018-05-23T01:44:26.266Z,21.13
2018-05-23T01:46:53.785Z,19.03
2018-05-23T01:49:26.325Z,19.13
2018-05-23T01:51:54.615Z,20.27
2018-05-23T01:54:22.906Z,19.63
2018-05-23T01:56:50.417Z,20.40
2018-05-23T01:59:17.938Z,19.70
2018-05-23T02:01:45.465Z,19.50
2018-05-23T02:04:13.777Z,20.77
2018-05-23T02:06:41.291Z,20.97
2018-05-23T02:09:09.577Z,20.67
2018-05-23T02:11:37.857Z,20.37
2018-05-23T02:14:06.148Z,21.03
2018-05-23T02:16:33.661Z,19.90
2018-05-23T02:19:01.182Z,21.27
2018-05-23T02:21:28.697Z,19.60
2018-05-23T02:23:56.988Z,19.53
2018-05-23T02:26:25.273Z,20.60
2018-05-23T02:28:52.825Z,19.50
2018-05-23T02:31:21.110Z,20.90
2018-05-23T02:33:48.622Z,20.23
2018-05-23T02:36:16.145Z,20.20
2018-05-23T02:38:43.661Z,21.60
2018-05-23T02:41:11.942Z,22.97
2018-05-23T02:43:40.230Z,20.50
2018-05-23T02:46:08.506Z,20.10
2018-05-23T02:48:36.811Z,22.10
2018-05-23T02:51:04.331Z,21.33
2018-05-23T02:53:32.642Z,22.93
2018-05-23T02:56:00.158Z,23.20
2018-05-23T02:58:28.433Z,22.67
2018-05-23T03:00:56.714Z,21.40
2018-05-23T03:03:24.221Z,22.67
2018-05-23T03:05:51.749Z,22.23
2018-05-23T03:08:20.046Z,22.70
2018-05-23T03:10:47.565Z,24.73
2018-05-23T03:13:15.083Z,23.30
2018-05-23T03:15:42.601Z,24.33
2018-05-23T03:18:10.898Z,22.23
2018-05-23T03:20:38.422Z,23.70
2018-05-23T03:23:06.709Z,24.83
2018-05-23T03:25:35.002Z,23.27
2018-05-23T03:28:02.529Z,24.13
2018-05-23T03:30:30.821Z,22.10
2018-05-23T03:32:59.106Z,23.97
2018-05-23T03:35:27.390Z,24.33
2018-05-23T03:37:54.905Z,23.33
2018-05-23T03:40:22.437Z,23.57
2018-05-23T03:42:49.957Z,22.73
2018-05-23T03:45:18.237Z,26.17
2018-05-23T03:47:45.759Z,26.00
2018-05-23T03:50:13.273Z,26.47
2018-05-23T03:52:40.793Z,25.27
2018-05-23T03:55:09.075Z,25.60
2018-05-23T03:57:37.366Z,28.17
2018-05-23T04:00:16.750Z,28.53
2018-05-23T04:02:56.185Z,28.83
2018-05-23T04:05:35.535Z,24.60
2018-05-23T04:08:03.066Z,25.83
2018-05-23T04:10:30.589Z,27.30
2018-05-23T04:12:58.868Z,25.20
2018-05-23T04:15:27.306Z,26.40
2018-05-23T04:17:54.782Z,23.27
2018-05-23T04:20:23.822Z,27.90
2018-05-23T04:22:51.339Z,25.60
2018-05-23T04:25:19.621Z,25.77
2018-05-23T04:27:47.906Z,25.47
2018-05-23T04:30:16.184Z,23.43
2018-05-23T04:32:44.478Z,25.53
2018-05-23T04:35:12.005Z,25.60
2018-05-23T04:37:40.306Z,25.10
2018-05-23T04:40:07.998Z,23.73
2018-05-23T04:42:35.517Z,23.13
2018-05-23T04:45:03.809Z,25.33
2018-05-23T04:47:31.323Z,25.67
2018-05-23T04:49:58.918Z,26.53
2018-05-23T04:52:27.208Z,27.27
2018-05-23T04:54:54.730Z,25.80
2018-05-23T04:57:23.025Z,27.70
2018-05-23T04:59:51.317Z,27.00
2018-05-23T05:02:18.833Z,27.47
2018-05-23T05:04:46.375Z,26.17
2018-05-23T05:07:13.893Z,30.13
2018-05-23T05:09:41.442Z,28.93
2018-05-23T05:12:09.744Z,27.97
2018-05-23T05:14:37.253Z,27.90
2018-05-23T05:17:04.777Z,27.90
2018-05-23T05:19:32.297Z,28.87
2018-05-23T05:22:00.577Z,28.53
2018-05-23T05:24:28.864Z,30.87
2018-05-23T05:26:56.373Z,30.57
2018-05-23T05:29:23.902Z,29.03
2018-05-23T05:31:51.447Z,29.40
2018-05-23T05:34:18.952Z,29.37
2018-05-23T05:36:46.469Z,29.07
2018-05-23T05:39:13.994Z,30.07
2018-05-23T05:41:41.533Z,27.33
2018-05-23T05:44:09.050Z,26.20
2018-05-23T05:46:36.565Z,28.93
2018-05-23T05:49:04.860Z,28.57
2018-05-23T05:51:33.137Z,28.20
2018-05-23T05:54:01.414Z,26.47
2018-05-23T05:56:28.948Z,25.13
2018-05-23T05:58:56.469Z,25.80
2018-05-23T06:01:24.008Z,24.80
2018-05-23T06:03:51.526Z,25.70
2018-05-23T06:06:19.045Z,26.50
2018-05-23T06:08:46.571Z,24.30
2018-05-23T06:11:14.086Z,23.03
2018-05-23T06:13:41.603Z,21.73
2018-05-23T06:16:09.125Z,22.03
2018-05-23T06:18:37.406Z,21.80
2018-05-23T06:21:05.702Z,21.60
2018-05-23T06:23:33.217Z,24.00
2018-05-23T06:26:02.238Z,22.60
2018-05-23T06:28:30.530Z,21.80
2018-05-23T06:30:58.042Z,21.10
2018-05-23T06:33:25.599Z,21.20
2018-05-23T06:35:53.886Z,22.87
2018-05-23T06:38:22.913Z,22.80
2018-05-23T06:40:51.197Z,21.50
2018-05-23T06:43:18.718Z,20.30
2018-05-23T06:45:47.740Z,20.63
2018-05-23T06:48:16.034Z,20.50
2018-05-23T06:50:43.549Z,20.80
2018-05-23T06:53:11.081Z,22.07
2018-05-23T06:55:38.691Z,20.50
2018-05-23T06:58:06.135Z,19.67
2018-05-23T07:00:33.654Z,21.50
2018-05-23T07:03:01.173Z,18.87
2018-05-23T07:05:29.454Z,19.70
2018-05-23T07:07:56.965Z,20.20
2018-05-23T07:10:24.488Z,21.83
2018-05-23T07:12:52.004Z,20.10
2018-05-23T07:15:20.300Z,19.30
2018-05-23T07:17:47.883Z,20.27
2018-05-23T07:20:16.117Z,19.17
2018-05-23T07:22:44.413Z,20.17
2018-05-23T07:25:12.693Z,19.40
2018-05-23T07:27:40.218Z,20.70
2018-05-23T07:30:07.739Z,19.63
2018-05-23T07:32:35.258Z,18.20
2018-05-23T07:35:03.542Z,18.73
2018-05-23T07:37:31.842Z,16.97
2018-05-23T07:39:59.365Z,18.47
2018-05-23T07:42:27.653Z,18.77
2018-05-23T07:44:55.941Z,17.10
2018-05-23T07:47:23.453Z,16.50
2018-05-23T07:49:50.979Z,18.30
2018-05-23T07:52:18.499Z,17.53
2018-05-23T07:54:46.791Z,16.93
2018-05-23T07:57:14.301Z,14.50
2018-05-23T07:59:41.822Z,13.63
2018-05-23T08:02:09.341Z,15.10
2018-05-23T08:04:36.862Z,15.00
2018-05-23T08:07:04.373Z,16.17
2018-05-23T08:09:32.648Z,15.07
2018-05-23T08:12:00.937Z,15.80
2018-05-23T08:14:28.466Z,14.83
2018-05-23T08:16:55.985Z,14.80
2018-05-23T08:19:23.497Z,14.53
2018-05-23T08:21:51.779Z,15.43
2018-05-23T08:24:20.129Z,14.77
2018-05-23T08:26:47.590Z,14.73
2018-05-23T08:29:15.110Z,14.63
2018-05-23T08:31:42.629Z,14.03
2018-05-23T08:34:10.925Z,15.07
2018-05-23T08:36:38.439Z,14.40
2018-05-23T08:39:05.950Z,14.77
2018-05-23T08:41:33.470Z,15.00
2018-05-23T08:57:03.485Z,12.73
2018-05-23T08:59:31.781Z,13.37
2018-05-23T09:01:59.305Z,13.70
2018-05-23T09:04:26.828Z,14.00
2018-05-23T09:06:54.350Z,12.20
2018-05-23T09:09:21.918Z,13.30
2018-05-23T09:11:49.398Z,13.03
2018-05-23T09:14:16.917Z,11.53
2018-05-23T09:16:45.234Z,13.03
2018-05-23T09:19:12.745Z,12.90
2018-05-23T09:21:41.029Z,12.70
2018-05-23T09:24:09.322Z,13.43
2018-05-23T09:26:36.860Z,12.20
2018-05-23T09:29:05.134Z,13.43
2018-05-23T09:31:33.410Z,11.43
2018-05-23T09:34:01.698Z,11.90
2018-05-23T09:36:29.973Z,18.63
2018-05-23T09:38:58.253Z,18.10
2018-05-23T09:41:26.534Z,12.10
2018-05-23T09:43:54.813Z,13.87
2018-05-23T09:46:22.330Z,12.20
2018-05-23T09:48:49.845Z,12.50
2018-05-23T09:51:17.381Z,11.60
2018-05-23T09:53:45.673Z,12.77
2018-05-23T09:56:13.185Z,11.93
2018-05-23T09:58:40.693Z,11.50
2018-05-23T10:01:08.230Z,12.10
2018-05-23T10:03:36.520Z,11.63
2018-05-23T10:06:04.053Z,11.03
2018-05-23T10:08:31.583Z,11.03
2018-05-23T10:10:59.094Z,10.47
2018-05-23T10:13:26.614Z,10.67
2018-05-23T10:15:54.124Z,33.53
2018-05-23T10:18:21.633Z,9.93
2018-05-23T10:20:49.144Z,9.97
2018-05-23T10:23:16.653Z,9.37
2018-05-23T10:25:44.174Z,9.43
2018-05-23T10:28:11.681Z,9.60
2018-05-23T10:30:39.190Z,10.70
2018-05-23T10:33:06.697Z,9.27
2018-05-23T10:35:34.975Z,10.27
2018-05-23T10:38:02.502Z,9.80
2018-05-23T10:40:30.025Z,9.53
2018-05-23T10:42:57.536Z,9.33
2018-05-23T10:45:25.044Z,9.60
2018-05-23T10:47:52.557Z,10.17
2018-05-23T10:50:20.065Z,9.23
2018-05-23T10:52:47.573Z,8.60
2018-05-23T10:55:15.090Z,8.43
2018-05-23T10:57:42.598Z,9.50
2018-05-23T11:00:10.899Z,9.63
2018-05-23T11:02:38.429Z,9.57
2018-05-23T11:05:05.931Z,9.27
2018-05-23T11:07:33.467Z,8.07
2018-05-23T11:10:01.741Z,8.80
2018-05-23T11:12:30.015Z,9.10
2018-05-23T11:14:58.358Z,8.50
2018-05-23T11:17:25.853Z,8.33
2018-05-23T11:19:54.123Z,7.17
2018-05-23T11:22:22.445Z,7.30
2018-05-23T11:24:49.975Z,8.67
2018-05-23T11:27:18.246Z,8.10
2018-05-23T11:29:46.534Z,8.57
2018-05-23T11:32:14.809Z,10.13
2018-05-23T11:34:42.321Z,9.20
2018-05-23T11:37:09.908Z,8.07
2018-05-23T11:39:37.366Z,9.17
2018-05-23T11:42:05.637Z,8.90
2018-05-23T11:44:33.923Z,8.30
2018-05-23T11:47:02.217Z,8.93
2018-05-23T11:49:29.725Z,8.13
2018-05-23T11:51:57.235Z,9.57
2018-05-23T11:54:24.766Z,9.87
2018-05-23T11:56:53.070Z,7.43
2018-05-23T11:59:20.574Z,6.57
2018-05-23T12:01:48.151Z,8.27
2018-05-23T12:04:15.610Z,7.47
2018-05-23T12:06:43.115Z,8.23
2018-05-23T12:09:10.627Z,8.33
2018-05-23T12:11:38.137Z,8.00
2018-05-23T12:14:05.682Z,8.53
2018-05-23T12:16:33.209Z,8.00
2018-05-23T12:19:00.721Z,8.77
2018-05-23T12:21:28.274Z,7.53
2018-05-23T12:23:55.781Z,7.63
2018-05-23T12:26:23.494Z,8.43
2018-05-23T12:28:51.071Z,8.70
2018-05-23T12:31:18.590Z,9.50
2018-05-23T12:33:46.893Z,9.73
2018-05-23T12:36:14.406Z,9.37
2018-05-23T12:41:16.261Z,9.20
2018-05-23T12:43:43.790Z,10.10
2018-05-23T12:46:11.289Z,9.70
2018-05-23T12:48:38.804Z,10.90
2018-05-23T12:51:06.324Z,9.27
2018-05-23T12:53:34.632Z,9.30
2018-05-23T12:56:02.145Z,10.57
2018-05-23T12:58:29.677Z,9.10
2018-05-23T13:00:57.269Z,9.67
2018-05-23T13:03:24.787Z,11.57
2018-05-23T13:05:52.302Z,9.90
2018-05-23T13:08:20.645Z,9.83
2018-05-23T13:10:48.159Z,10.03
2018-05-23T13:13:15.673Z,10.40
2018-05-23T13:15:43.198Z,9.87
2018-05-23T13:18:10.714Z,10.20
2018-05-23T13:20:38.994Z,9.97
2018-05-23T13:23:07.266Z,10.47
2018-05-23T13:25:35.545Z,11.97
2018-05-23T13:28:03.828Z,12.10
2018-05-23T13:30:32.105Z,10.10
2018-05-23T13:32:59.657Z,10.53
2018-05-23T13:35:27.925Z,9.77
2018-05-23T13:37:56.213Z,10.80
2018-05-23T13:40:24.495Z,13.63
2018-05-23T13:42:52.773Z,12.30
2018-05-23T13:45:21.059Z,10.23
2018-05-23T13:47:48.581Z,10.30
2018-05-23T13:50:16.189Z,10.90
2018-05-23T13:52:43.627Z,12.40
2018-05-23T13:55:11.906Z,10.03
2018-05-23T13:57:39.430Z,9.60
2018-05-23T14:00:06.938Z,9.57
2018-05-23T14:02:34.450Z,9.00
2018-05-23T14:05:01.963Z,9.13
2018-05-23T14:07:29.481Z,8.80
2018-05-23T14:09:57.757Z,9.17
2018-05-23T14:12:26.034Z,11.00
2018-05-23T14:14:54.314Z,7.23
2018-05-23T14:17:22.592Z,10.03
2018-05-23T14:19:50.889Z,8.93
2018-05-23T14:22:18.570Z,8.17
2018-05-23T14:24:46.098Z,7.50
2018-05-23T14:27:14.378Z,7.53
2018-05-23T14:29:41.893Z,7.73
2018-05-23T14:32:09.414Z,10.60
2018-05-23T14:34:36.917Z,8.50
2018-05-23T14:37:04.437Z,8.57
2018-05-23T14:39:31.941Z,9.50
2018-05-23T14:41:59.526Z,14.87
2018-05-23T14:44:27.815Z,10.00
2018-05-23T14:46:55.347Z,10.57
2018-05-23T14:49:23.633Z,10.27
2018-05-23T14:51:51.914Z,12.10
2018-05-23T14:54:20.207Z,12.37
2018-05-23T14:56:47.727Z,10.60
2018-05-23T14:59:15.253Z,13.07
2018-05-23T15:01:42.769Z,14.20
2018-05-23T15:04:11.064Z,13.00
2018-05-23T15:06:38.582Z,12.70
2018-05-23T15:09:06.102Z,12.50
2018-05-23T15:11:33.621Z,11.80
2018-05-23T15:14:01.906Z,12.20
2018-05-23T15:16:29.440Z,12.20
2018-05-23T15:18:57.018Z,12.30
2018-05-23T15:21:25.297Z,14.83
2018-05-23T15:23:53.588Z,12.10
2018-05-23T15:26:21.108Z,12.57
2018-05-23T15:28:48.622Z,9.70
2018-05-23T15:31:16.307Z,10.00
2018-05-23T15:33:43.769Z,8.97
2018-05-23T15:36:11.285Z,9.63
2018-05-23T15:38:38.794Z,9.10
2018-05-23T15:41:06.313Z,8.73
2018-05-23T15:43:33.835Z,8.93
2018-05-23T15:46:02.101Z,9.77
2018-05-23T15:48:29.613Z,21.80
2018-05-23T15:50:57.159Z,10.80
2018-05-23T15:53:24.677Z,10.47
2018-05-23T15:55:52.198Z,11.43
2018-05-23T15:58:19.709Z,11.53
2018-05-23T16:00:47.992Z,11.57
2018-05-23T16:03:16.270Z,10.40
2018-05-23T16:05:43.794Z,10.53
2018-05-23T16:08:11.310Z,19.80
2018-05-23T16:10:38.831Z,12.97
2018-05-23T16:13:07.132Z,12.47
2018-05-23T16:15:34.657Z,12.23
2018-05-23T16:18:02.173Z,15.80
2018-05-23T16:20:29.725Z,14.57
2018-05-23T16:22:57.229Z,12.83
2018-05-23T16:25:24.747Z,15.10
2018-05-23T16:27:52.265Z,12.50
2018-05-23T16:30:20.553Z,13.10
2018-05-23T16:32:48.066Z,13.87
2018-05-23T16:35:15.605Z,13.70
2018-05-23T16:37:43.121Z,12.37
2018-05-23T16:40:11.398Z,12.47
2018-05-23T16:42:39.687Z,12.43
2018-05-23T16:45:07.219Z,12.50
2018-05-23T16:47:35.505Z,11.63
2018-05-23T16:50:03.783Z,12.60
2018-05-23T16:52:32.066Z,12.27
2018-05-23T16:55:00.345Z,11.47
2018-05-23T16:57:28.634Z,12.60
2018-05-23T16:59:56.153Z,14.63
2018-05-23T17:02:23.684Z,14.10
2018-05-23T17:04:51.201Z,13.20
2018-05-23T17:07:19.491Z,11.90
2018-05-23T17:09:47.026Z,12.00
2018-05-23T17:12:15.301Z,13.80
2018-05-23T17:14:43.586Z,12.57
2018-05-23T17:17:11.869Z,19.87
2018-05-23T17:19:39.384Z,44.10
2018-05-23T17:22:06.910Z,16.57
2018-05-23T17:24:34.421Z,18.80
2018-05-23T17:27:01.933Z,17.03
2018-05-23T17:29:29.455Z,36.63
2018-05-23T17:31:57.733Z,42.53
2018-05-23T17:34:26.017Z,13.03
2018-05-23T17:36:53.529Z,13.03
2018-05-23T17:39:21.051Z,13.13
2018-05-23T17:41:48.569Z,14.37
2018-05-23T17:44:16.858Z,15.37
2018-05-23T17:46:45.142Z,14.57
2018-05-23T17:49:12.653Z,12.57
2018-05-23T17:51:40.170Z,15.20
2018-05-23T17:54:07.693Z,12.93
2018-05-23T17:56:35.218Z,12.37
2018-05-23T17:59:02.734Z,12.27
2018-05-23T18:01:31.021Z,12.27
2018-05-23T18:03:58.533Z,13.87
2018-05-23T18:06:26.094Z,13.10
2018-05-23T18:08:53.593Z,15.60
2018-05-23T18:11:21.137Z,17.40
2018-05-23T18:13:49.416Z,13.03
2018-05-23T18:16:17.699Z,12.57
2018-05-23T18:18:45.984Z,12.83
2018-05-23T18:21:13.533Z,37.57
2018-05-23T18:23:41.840Z,14.77
2018-05-23T18:26:09.361Z,13.53
2018-05-23T18:28:36.889Z,41.80
2018-05-23T18:31:04.427Z,26.50
2018-05-23T18:33:31.938Z,16.70
2018-05-23T18:36:00.261Z,16.30
2018-05-23T18:38:27.794Z,19.80
2018-05-23T18:40:55.330Z,15.27
2018-05-23T18:43:23.729Z,14.33
2018-05-23T18:45:51.161Z,16.03
2018-05-23T18:48:19.470Z,16.43
2018-05-23T18:50:46.985Z,14.30
2018-05-23T18:53:14.509Z,17.87
2018-05-23T18:55:42.029Z,18.27
2018-05-23T18:58:10.342Z,18.63
2018-05-23T19:00:37.891Z,21.33
2018-05-23T19:03:05.398Z,20.23
2018-05-23T19:05:32.929Z,18.57
2018-05-23T19:08:00.455Z,17.60
2018-05-23T19:10:27.980Z,16.73
2018-05-23T19:12:55.498Z,16.20
2018-05-23T19:15:23.033Z,15.97
2018-05-23T19:17:50.557Z,19.00
2018-05-23T19:20:18.082Z,17.43
2018-05-23T19:22:45.632Z,16.23
2018-05-23T19:25:13.165Z,16.77
2018-05-23T19:27:40.677Z,18.77
2018-05-23T19:30:08.202Z,16.67
2018-05-23T19:32:35.737Z,17.27
2018-05-23T19:35:04.033Z,17.40
2018-05-23T19:37:31.566Z,16.47
2018-05-23T19:39:59.849Z,16.30
2018-05-23T19:42:28.144Z,15.80
2018-05-23T19:44:55.665Z,16.03
2018-05-23T19:47:23.279Z,17.03
2018-05-23T19:49:50.742Z,15.90
2018-05-23T19:52:18.290Z,17.07
2018-05-23T19:54:45.817Z,18.07
2018-05-23T19:57:14.105Z,18.67
2018-05-23T19:59:41.633Z,19.93
2018-05-23T20:02:09.173Z,19.53
2018-05-23T20:04:36.708Z,19.20
2018-05-23T20:07:04.235Z,17.70
2018-05-23T20:09:31.762Z,18.47
2018-05-23T20:11:59.323Z,17.87
2018-05-23T20:14:26.853Z,17.30
2018-05-23T20:16:54.409Z,18.80
2018-05-23T20:19:21.932Z,16.10
2018-05-23T20:21:50.208Z,17.37
2018-05-23T20:24:19.664Z,18.43
2018-05-23T20:26:47.181Z,17.33
2018-05-23T20:29:14.740Z,17.67
2018-05-23T20:31:43.046Z,17.47
2018-05-23T20:34:10.569Z,18.30
2018-05-23T20:36:38.085Z,18.93
2018-05-23T20:39:06.401Z,17.83
2018-05-23T20:41:34.681Z,19.80
2018-05-23T20:44:02.954Z,18.80
2018-05-23T20:46:31.233Z,18.00
2018-05-23T20:48:58.762Z,18.23
2018-05-23T20:51:26.287Z,17.50
2018-05-23T20:53:53.805Z,18.50
2018-05-23T20:56:22.086Z,19.00
2018-05-23T20:58:49.642Z,18.93
2018-05-23T21:01:17.153Z,19.10
2018-05-23T21:03:44.653Z,19.27
2018-05-23T21:06:12.941Z,19.27
2018-05-23T21:08:40.453Z,19.87
2018-05-23T21:11:07.981Z,17.47
2018-05-23T21:13:35.493Z,20.13
2018-05-23T21:16:03.777Z,19.50
2018-05-23T21:18:32.061Z,20.17
2018-05-23T21:21:00.349Z,18.50
2018-05-23T21:23:27.867Z,18.80
2018-05-23T21:25:55.466Z,19.03
2018-05-23T21:28:22.977Z,20.23
2018-05-23T21:30:50.495Z,20.43
2018-05-23T21:33:18.008Z,19.53
2018-05-23T21:35:45.526Z,21.67
2018-05-23T21:38:13.038Z,19.50
2018-05-23T21:40:41.338Z,22.77
2018-05-23T21:43:08.851Z,20.83
2018-05-23T21:45:36.370Z,20.80
2018-05-23T21:48:03.882Z,21.80
2018-05-23T21:50:31.397Z,24.40
2018-05-23T21:52:58.913Z,23.27
2018-05-23T21:55:27.197Z,24.00
2018-05-23T21:57:55.499Z,22.60
2018-05-23T22:00:23.014Z,24.97
2018-05-23T22:02:50.534Z,25.70
2018-05-23T22:05:18.057Z,24.57
2018-05-23T22:07:45.610Z,24.10
2018-05-23T22:10:13.895Z,25.30
2018-05-23T22:12:42.177Z,24.20
2018-05-23T22:15:09.693Z,23.47
2018-05-23T22:17:37.209Z,23.50
2018-05-23T22:20:04.725Z,24.33
2018-05-23T22:22:33.005Z,25.87
2018-05-23T22:25:01.285Z,24.10
2018-05-23T22:27:29.569Z,26.03
2018-05-23T22:29:57.866Z,25.83
2018-05-23T22:32:25.381Z,26.03
2018-05-23T22:34:52.889Z,27.43
2018-05-23T22:37:20.422Z,27.87
2018-05-23T22:39:48.776Z,26.63
2018-05-23T22:42:16.221Z,24.30
2018-05-23T22:44:43.728Z,25.63
2018-05-23T22:47:11.262Z,26.53
2018-05-23T22:49:38.775Z,26.30
2018-05-23T22:52:06.286Z,27.13
2018-05-23T22:54:34.571Z,28.10
2018-05-23T22:57:02.854Z,26.00
2018-05-23T22:59:30.369Z,28.10
2018-05-23T23:01:57.882Z,25.70
2018-05-23T23:04:25.419Z,25.73
2018-05-23T23:06:53.720Z,26.87
2018-05-23T23:09:21.226Z,25.33
2018-05-23T23:11:48.738Z,26.33
2018-05-23T23:14:16.266Z,27.47
2018-05-23T23:16:44.550Z,26.93
2018-05-23T23:19:12.841Z,28.60
2018-05-23T23:21:40.357Z,27.00
2018-05-23T23:24:09.378Z,29.27
2018-05-23T23:26:37.657Z,28.83
2018-05-23T23:29:05.937Z,29.00
2018-05-23T23:31:34.226Z,26.83
2018-05-23T23:34:01.754Z,28.60
2018-05-23T23:36:30.029Z,27.20
2018-05-23T23:38:57.549Z,28.47
2018-05-23T23:41:25.076Z,26.67
2018-05-23T23:43:52.594Z,27.17
2018-05-23T23:46:20.949Z,29.10
2018-05-23T23:48:49.177Z,26.23
2018-05-23T23:51:17.463Z,27.40
2018-05-23T23:53:44.974Z,27.70
2018-05-23T23:56:12.498Z,26.97
2018-05-23T23:58:40.010Z,28.03
